Time;durP1;ratioP1;P1;durP2;ratioP2;P2;SDS_P1;SDS_P2;PMS_P1;PMS_P2;Temp;Humidity;BMP_temperature;BMP_pressure;BME280_temperature;BME280_humidity;BME280_pressure;Samples;Min_cycle;Max_cycle;Signal;HPM_P1;HPM_P2
2022/09/20 00:01:26;;;;;;;3.60;2.63;;;15.40;99.90;;;;;;5078670;28;20127;-60
2022/09/20 00:03:57;;;;;;;6.78;3.45;;;15.40;99.90;;;;;;5078423;28;20055;-59
2022/09/20 00:06:26;;;;;;;4.55;2.38;;;15.30;99.90;;;;;;5078976;28;20066;-60
2022/09/20 00:08:53;;;;;;;3.75;2.50;;;15.30;99.90;;;;;;5078736;28;20071;-59
2022/09/20 00:11:24;;;;;;;4.32;2.88;;;15.20;99.90;;;;;;5078908;28;20053;-60
2022/09/20 00:13:53;;;;;;;3.70;2.63;;;15.10;99.90;;;;;;5078339;28;20056;-60
2022/09/20 00:16:28;;;;;;;3.63;2.63;;;15.10;99.90;;;;;;5079047;28;20173;-62
2022/09/20 00:18:55;;;;;;;4.63;2.55;;;15.00;99.90;;;;;;5060993;28;20055;-60
2022/09/20 00:21:24;;;;;;;3.80;2.53;;;14.90;99.90;;;;;;5078433;28;20036;-59
2022/09/20 00:23:51;;;;;;;2.65;2.13;;;14.90;99.90;;;;;;5077632;28;20075;-61
2022/09/20 00:26:18;;;;;;;4.97;2.67;;;14.80;99.90;;;;;;5078273;28;20033;-59
2022/09/20 00:28:45;;;;;;;2.83;2.28;;;14.80;99.90;;;;;;5078498;28;20092;-60
2022/09/20 00:31:14;;;;;;;4.95;2.67;;;14.70;99.90;;;;;;5078697;28;20059;-59
2022/09/20 00:36:26;;;;;;;4.28;2.85;;;14.50;99.90;;;;;;5078631;28;20079;-60
2022/09/20 00:38:57;;;;;;;4.28;2.53;;;14.50;99.90;;;;;;5077931;28;20021;-61
2022/09/20 00:41:23;;;;;;;6.50;2.58;;;14.50;99.90;;;;;;5078731;28;20144;-60
2022/09/20 00:43:50;;;;;;;5.53;2.60;;;14.50;99.90;;;;;;5078459;28;20048;-60
2022/09/20 00:46:37;;;;;;;4.13;2.60;;;14.40;99.90;;;;;;5078697;28;20029;-59
2022/09/20 00:49:16;;;;;;;5.32;2.95;;;14.40;99.90;;;;;;5057608;28;20057;-60
2022/09/20 00:51:46;;;;;;;7.47;3.10;;;14.30;99.90;;;;;;5060027;28;20163;-60
2022/09/20 00:54:14;;;;;;;6.10;2.63;;;14.30;99.90;;;;;;4725172;28;10000701;-59
2022/09/20 00:56:46;;;;;;;4.63;2.78;;;14.20;99.90;;;;;;5078368;28;20044;-61
2022/09/20 00:59:29;;;;;;;4.88;2.80;;;14.20;99.90;;;;;;5078365;28;20036;-60
2022/09/20 01:02:17;;;;;;;4.80;2.90;;;14.20;99.90;;;;;;5062890;28;20100;-59
2022/09/20 01:04:44;;;;;;;5.78;3.20;;;14.20;99.90;;;;;;5078321;28;20097;-59
2022/09/20 01:07:13;;;;;;;3.38;2.60;;;14.10;99.90;;;;;;5058135;28;20029;-61
2022/09/20 01:09:39;;;;;;;5.40;2.45;;;14.00;99.90;;;;;;5069750;28;20069;-60
2022/09/20 01:12:11;;;;;;;6.80;3.30;;;14.00;99.90;;;;;;5078220;28;20097;-60
2022/09/20 01:14:38;;;;;;;4.75;2.60;;;13.90;99.90;;;;;;5045478;28;20097;-60
2022/09/20 01:17:05;;;;;;;4.95;2.95;;;13.90;99.90;;;;;;5061662;28;20044;-59
2022/09/20 01:19:55;;;;;;;7.68;2.72;;;13.90;99.90;;;;;;5077634;28;20060;-59
2022/09/20 01:22:25;;;;;;;5.18;2.80;;;13.90;99.90;;;;;;5077704;28;20096;-59
2022/09/20 01:25:07;;;;;;;4.68;2.65;;;13.90;99.90;;;;;;5060977;28;20051;-58
2022/09/20 01:27:52;;;;;;;4.80;3.35;;;13.90;99.90;;;;;;5078781;28;20033;-59
2022/09/20 01:30:24;;;;;;;3.97;2.88;;;13.80;99.90;;;;;;5077878;28;20226;-60
2022/09/20 01:32:54;;;;;;;6.78;3.13;;;13.70;99.90;;;;;;5061256;28;20085;-60
2022/09/20 01:35:21;;;;;;;6.75;3.38;;;13.60;99.90;;;;;;5077517;28;20073;-60
2022/09/20 01:38:07;;;;;;;6.25;3.60;;;13.60;99.90;;;;;;5044426;28;20092;-59
2022/09/20 01:40:46;;;;;;;7.57;3.08;;;13.50;99.90;;;;;;5077631;28;20055;-60
2022/09/20 01:43:32;;;;;;;5.78;3.25;;;13.50;99.90;;;;;;5078000;28;20032;-59
2022/09/20 01:46:00;;;;;;;5.03;3.05;;;13.50;99.90;;;;;;5077819;28;20092;-60
2022/09/20 01:48:34;;;;;;;5.25;3.05;;;13.40;99.90;;;;;;5057389;28;20064;-60
2022/09/20 01:51:30;;;;;;;5.78;3.33;;;13.30;99.90;;;;;;5060729;28;20084;-60
2022/09/20 01:54:02;;;;;;;4.75;2.95;;;13.30;99.90;;;;;;5063195;28;20056;-60
2022/09/20 01:56:57;;;;;;;5.30;3.90;;;13.30;99.90;;;;;;5077060;28;20061;-59
2022/09/20 01:59:47;;;;;;;7.25;3.58;;;13.30;99.90;;;;;;5057956;28;20034;-59
2022/09/20 02:02:23;;;;;;;6.38;3.38;;;13.20;99.90;;;;;;5076517;28;20049;-61
2022/09/20 02:05:17;;;;;;;6.97;3.67;;;13.20;99.90;;;;;;5077284;28;20041;-58
2022/09/20 02:08:09;;;;;;;5.97;3.15;;;13.20;99.90;;;;;;5076259;28;20047;-59
2022/09/20 02:10:54;;;;;;;5.28;3.47;;;13.20;99.90;;;;;;5077362;28;20072;-59
2022/09/20 02:13:38;;;;;;;6.50;3.17;;;13.20;99.90;;;;;;5077219;28;20061;-58
2022/09/20 02:16:19;;;;;;;7.13;3.72;;;13.20;99.90;;;;;;5077448;28;20043;-58
2022/09/20 02:19:08;;;;;;;4.70;3.20;;;13.30;99.90;;;;;;5051875;28;20695;-59
2022/09/20 02:21:46;;;;;;;5.07;2.97;;;13.30;99.90;;;;;;5076108;28;20052;-59
2022/09/20 02:24:37;;;;;;;9.32;3.47;;;13.20;99.90;;;;;;5060714;28;20088;-60
2022/09/20 02:27:12;;;;;;;4.82;2.78;;;13.20;99.90;;;;;;5076381;28;20060;-59
2022/09/20 02:30:03;;;;;;;6.47;3.53;;;13.20;99.90;;;;;;5077224;28;20052;-61
2022/09/20 02:32:33;;;;;;;4.93;2.90;;;13.30;99.90;;;;;;5076388;28;20071;-59
2022/09/20 02:35:14;;;;;;;6.88;3.03;;;13.30;99.90;;;;;;5077119;28;20060;-59
2022/09/20 02:38:29;;;;;;;4.70;3.05;;;13.30;99.90;;;;;;5076623;28;20092;-59
2022/09/20 02:41:25;;;;;;;5.82;2.75;;;13.30;99.90;;;;;;5075488;28;20149;-65
2022/09/20 02:44:14;;;;;;;8.27;2.70;;;13.40;99.90;;;;;;5077894;28;20127;-58
2022/09/20 02:46:46;;;;;;;8.77;3.67;;;13.30;99.90;;;;;;5078351;28;20112;-59
2022/09/20 02:49:44;;;;;;;9.57;3.53;;;13.40;99.90;;;;;;5036573;28;20093;-60
2022/09/20 02:52:15;;;;;;;11.75;3.72;;;13.40;99.90;;;;;;5042808;28;20032;-60
2022/09/20 02:58:56;;;;;;;11.48;3.63;;;13.30;99.90;;;;;;5067258;28;20048;-59
2022/09/20 03:01:23;;;;;;;10.30;3.80;;;13.30;99.90;;;;;;5041762;28;20032;-59
2022/09/20 03:03:59;;;;;;;12.15;4.40;;;13.30;99.90;;;;;;5071050;28;20025;-60
2022/09/20 03:06:34;;;;;;;7.50;3.92;;;13.30;99.90;;;;;;5076587;28;20039;-57
2022/09/20 03:09:28;;;;;;;7.13;3.05;;;13.30;99.90;;;;;;5076238;28;20049;-59
2022/09/20 03:12:04;;;;;;;9.40;4.35;;;13.30;99.90;;;;;;5055873;28;20112;-60
2022/09/20 03:14:36;;;;;;;7.72;3.88;;;13.30;99.90;;;;;;5074019;28;20109;-59
2022/09/20 03:17:18;;;;;;;8.30;3.72;;;13.30;99.90;;;;;;5075821;28;20101;-60
2022/09/20 03:20:06;;;;;;;7.47;3.35;;;13.20;99.90;;;;;;5074755;28;20259;-58
2022/09/20 03:22:51;;;;;;;6.50;3.72;;;13.00;99.90;;;;;;5074642;28;20060;-60
2022/09/20 03:25:36;;;;;;;10.77;4.10;;;13.00;99.90;;;;;;5074912;28;20060;-59
2022/09/20 03:28:14;;;;;;;7.20;4.32;;;13.00;99.90;;;;;;5076083;28;20028;-60
2022/09/20 03:31:02;;;;;;;6.72;3.58;;;13.10;99.90;;;;;;5073493;28;20093;-61
2022/09/20 03:33:38;;;;;;;9.75;4.13;;;13.20;99.90;;;;;;5075134;28;20049;-60
2022/09/20 03:36:29;;;;;;;10.02;3.92;;;13.20;99.90;;;;;;5075926;28;20096;-58
2022/09/20 03:39:25;;;;;;;8.38;3.75;;;13.20;99.90;;;;;;5075579;28;20039;-60
2022/09/20 03:42:17;;;;;;;6.05;3.20;;;13.20;99.90;;;;;;5075914;28;20096;-60
2022/09/20 03:44:47;;;;;;;11.20;3.60;;;13.20;99.90;;;;;;5074803;28;20025;-60
2022/09/20 03:47:14;;;;;;;6.95;3.50;;;13.20;99.90;;;;;;5076133;28;20106;-60
2022/09/20 03:49:52;;;;;;;6.90;3.30;;;13.20;99.90;;;;;;5074955;28;20135;-61
2022/09/20 03:52:42;;;;;;;9.77;3.90;;;13.20;99.90;;;;;;5058847;28;20061;-60
2022/09/20 03:55:31;;;;;;;9.05;3.25;;;13.20;99.90;;;;;;5074924;28;20089;-61
2022/09/20 03:58:23;;;;;;;6.55;3.17;;;13.20;99.90;;;;;;5075853;28;20060;-59
2022/09/20 04:01:32;;;;;;;6.45;3.40;;;13.20;99.90;;;;;;5075106;28;20033;-60
2022/09/20 04:04:07;;;;;;;6.43;3.80;;;13.20;99.90;;;;;;5054629;28;20056;-60
2022/09/20 04:06:47;;;;;;;7.88;3.50;;;13.20;99.90;;;;;;5066662;28;20085;-58
2022/09/20 04:09:32;;;;;;;6.55;3.45;;;13.10;99.90;;;;;;5075743;28;20047;-59
2022/09/20 04:12:25;;;;;;;5.75;2.88;;;13.10;99.90;;;;;;5074972;28;20040;-59
2022/09/20 04:15:15;;;;;;;5.65;3.45;;;13.10;99.90;;;;;;5074200;28;20037;-60
2022/09/20 04:17:51;;;;;;;8.77;3.80;;;13.00;99.90;;;;;;5064729;28;20044;-60
2022/09/20 04:20:41;;;;;;;6.10;3.45;;;13.00;99.90;;;;;;5058880;28;20044;-60
2022/09/20 04:23:36;;;;;;;6.45;3.85;;;12.90;99.90;;;;;;5075527;28;20028;-60
2022/09/20 04:26:02;;;;;;;;;;;12.80;99.90;;;;;;5060792;28;20088;-61
2022/09/20 04:28:40;;;;;;;5.18;3.35;;;12.80;99.90;;;;;;5074826;28;19976;-60
2022/09/20 04:31:22;;;;;;;9.30;3.60;;;12.70;99.90;;;;;;5074906;28;20033;-60
2022/09/20 04:33:49;;;;;;;7.50;3.90;;;12.70;99.90;;;;;;5074659;28;20033;-60
2022/09/20 04:36:32;;;;;;;7.47;3.25;;;12.70;99.90;;;;;;5074761;28;20073;-60
2022/09/20 04:39:02;;;;;;;7.40;3.80;;;12.60;99.90;;;;;;5074297;28;20033;-60
2022/09/20 04:42:07;;;;;;;5.63;3.30;;;12.60;99.90;;;;;;5075289;28;20033;-59
2022/09/20 04:45:22;;;;;;;5.78;4.10;;;12.60;99.90;;;;;;5076708;28;20033;-60
2022/09/20 04:47:54;;;;;;;;;;;12.50;99.90;;;;;;5078651;28;20029;-60
2022/09/20 04:50:39;;;;;;;8.85;4.05;;;12.50;99.90;;;;;;5078489;28;19980;-60
2022/09/20 04:53:18;;;;;;;6.47;3.40;;;12.40;99.90;;;;;;5078824;28;20105;-60
2022/09/20 04:56:21;;;;;;;7.22;3.17;;;12.40;99.90;;;;;;5078579;28;20048;-60
2022/09/20 04:59:07;;;;;;;6.38;3.38;;;12.30;99.90;;;;;;5060811;28;20089;-60
2022/09/20 05:02:12;;;;;;;6.40;3.53;;;12.20;99.90;;;;;;5076372;28;20025;-60
2022/09/20 05:04:42;;;;;;;8.02;3.40;;;12.10;99.90;;;;;;5072303;28;20029;-60
2022/09/20 05:07:24;;;;;;;9.98;3.78;;;12.00;99.90;;;;;;5078509;28;20092;-60
2022/09/20 05:10:14;;;;;;;9.65;4.00;;;12.00;99.90;;;;;;5078822;28;20069;-60
2022/09/20 05:13:04;;;;;;;8.85;5.40;;;12.00;99.90;;;;;;5078229;28;20040;-60
2022/09/20 05:15:43;;;;;;;7.80;4.80;;;11.90;99.90;;;;;;5078194;28;20093;-60
2022/09/20 05:18:39;;;;;;;11.65;6.00;;;11.90;99.90;;;;;;5077609;28;20056;-60
2022/09/20 05:21:06;;;;;;;19.48;7.63;;;11.80;99.90;;;;;;5070667;28;20061;-60
2022/09/20 05:23:51;;;;;;;21.75;10.02;;;11.80;99.90;;;;;;5078071;28;20029;-59
2022/09/20 05:26:38;;;;;;;;;;;11.80;99.90;;;;;;5058089;28;20026;-59
2022/09/20 05:29:28;;;;;;;14.57;6.60;;;11.70;99.90;;;;;;5075876;28;19940;-59
2022/09/20 05:31:57;;;;;;;12.30;6.70;;;11.70;99.90;;;;;;5062799;28;20060;-59
2022/09/20 05:34:57;;;;;;;12.48;6.63;;;11.70;99.90;;;;;;5077454;28;20045;-58
2022/09/20 05:37:43;;;;;;;13.75;5.75;;;11.70;99.90;;;;;;5077514;28;20081;-60
2022/09/20 05:40:12;;;;;;;8.90;5.03;;;11.60;99.90;;;;;;5060511;28;20033;-60
2022/09/20 05:42:48;;;;;;;8.25;5.13;;;11.50;99.90;;;;;;5077183;28;20029;-59
2022/09/20 05:45:37;;;;;;;11.80;5.35;;;11.50;99.90;;;;;;5061845;28;20088;-59
2022/09/20 05:48:17;;;;;;;9.90;4.68;;;11.40;99.90;;;;;;5062950;28;20109;-59
2022/09/20 05:51:12;;;;;;;8.70;5.03;;;11.40;99.90;;;;;;5066698;28;20104;-60
2022/09/20 05:54:17;;;;;;;7.70;4.82;;;11.40;99.90;;;;;;5076773;28;20080;-60
2022/09/20 05:56:46;;;;;;;9.65;4.95;;;11.40;99.90;;;;;;5076632;28;20048;-61
2022/09/20 05:59:24;;;;;;;8.02;4.38;;;11.40;99.90;;;;;;5076475;28;20056;-60
2022/09/20 06:02:28;;;;;;;13.18;4.65;;;11.40;99.90;;;;;;5076391;28;20101;-60
2022/09/20 06:04:55;;;;;;;8.35;4.30;;;11.40;99.90;;;;;;5076442;28;20029;-59
2022/09/20 06:07:38;;;;;;;6.70;3.90;;;11.40;99.90;;;;;;5077207;28;20033;-59
2022/09/20 06:10:38;;;;;;;7.38;4.55;;;11.40;99.90;;;;;;5075820;28;20056;-59
2022/09/20 06:13:30;;;;;;;8.57;4.22;;;11.40;99.90;;;;;;5066507;28;20029;-59
2022/09/20 06:15:59;;;;;;;13.23;5.03;;;11.40;99.90;;;;;;5076097;28;20029;-60
2022/09/20 06:19:09;;;;;;;9.85;4.47;;;11.40;99.90;;;;;;5059981;28;20112;-58
2022/09/20 06:21:51;;;;;;;11.57;4.90;;;11.40;99.90;;;;;;5083586;28;20063;-59
2022/09/20 06:24:40;;;;;;;15.55;5.15;;;11.40;99.90;;;;;;5062250;28;20036;-59
2022/09/20 06:27:17;;;;;;;11.70;5.35;;;11.50;99.90;;;;;;5067946;28;20029;-59
2022/09/20 06:29:48;;;;;;;10.32;4.72;;;11.60;99.90;;;;;;4705740;28;10000075;-60
2022/09/20 06:32:16;;;;;;;9.45;4.97;;;11.60;99.90;;;;;;5041214;28;20032;-59
2022/09/20 06:34:43;;;;;;;11.85;5.00;;;11.70;99.90;;;;;;5074194;28;20067;-60
2022/09/20 06:43:35;;;;;;;12.60;5.53;;;11.70;99.90;;;;;;5072068;28;20040;-60
2022/09/20 06:46:01;;;;;;;6.25;4.45;;;11.80;99.90;;;;;;5055172;28;20222;-58
2022/09/20 06:48:30;;;;;;;9.88;4.72;;;11.90;99.90;;;;;;5071705;28;20029;-59
2022/09/20 06:50:57;;;;;;;10.35;4.45;;;12.00;99.90;;;;;;5072199;28;20071;-60
2022/09/20 06:53:29;;;;;;;18.30;5.55;;;12.00;99.90;;;;;;5063692;28;20055;-57
2022/09/20 06:55:56;;;;;;;14.38;6.03;;;12.10;99.90;;;;;;5038489;28;20045;-60
2022/09/20 06:58:23;;;;;;;10.00;5.40;;;12.10;99.90;;;;;;5067035;28;20072;-60
2022/09/20 07:00:50;;;;;;;11.90;4.60;;;12.10;99.90;;;;;;5066567;28;20025;-61
2022/09/20 07:03:18;;;;;;;11.63;5.32;;;12.10;99.90;;;;;;5067437;28;20037;-61
2022/09/20 07:05:45;;;;;;;8.82;5.13;;;12.20;99.90;;;;;;5065718;28;20033;-62
2022/09/20 07:08:12;;;;;;;11.95;5.57;;;12.30;99.90;;;;;;5065749;28;20057;-59
2022/09/20 07:10:40;;;;;;;10.93;5.15;;;12.30;99.90;;;;;;5061665;28;20025;-61
2022/09/20 07:13:10;;;;;;;9.27;4.97;;;12.30;99.90;;;;;;5068407;28;20037;-59
2022/09/20 07:15:36;;;;;;;11.40;5.78;;;12.30;99.90;;;;;;5056591;28;20053;-59
2022/09/20 07:18:03;;;;;;;11.52;6.00;;;12.40;99.90;;;;;;5068440;28;20124;-60
2022/09/20 07:20:30;;;;;;;11.77;5.68;;;12.50;99.90;;;;;;5065371;28;20041;-59
2022/09/20 07:22:57;;;;;;;18.40;6.82;;;12.50;99.90;;;;;;5074820;28;20037;-59
2022/09/20 07:25:23;;;;;;;14.82;6.22;;;12.60;99.90;;;;;;5074729;28;20097;-60
2022/09/20 07:27:50;;;;;;;8.43;4.90;;;12.70;99.90;;;;;;5074282;28;20069;-60
2022/09/20 07:30:17;;;;;;;9.70;5.85;;;12.80;99.90;;;;;;5074745;28;20033;-61
2022/09/20 07:32:44;;;;;;;13.07;5.47;;;12.90;99.90;;;;;;5074914;28;20096;-61
2022/09/20 07:35:11;;;;;;;10.48;5.15;;;12.90;99.90;;;;;;5074993;28;20052;-59
2022/09/20 07:37:41;;;;;;;9.75;5.50;;;13.00;99.90;;;;;;5074319;28;20059;-59
2022/09/20 07:40:09;;;;;;;9.25;5.07;;;13.00;99.90;;;;;;5074162;28;20033;-59
2022/09/20 07:42:36;;;;;;;12.60;6.72;;;13.10;99.90;;;;;;5073947;28;20033;-61
2022/09/20 07:45:03;;;;;;;10.13;4.82;;;13.20;99.90;;;;;;5074185;28;20048;-60
2022/09/20 07:47:34;;;;;;;15.82;5.40;;;13.20;99.90;;;;;;5064653;28;20033;-60
2022/09/20 07:50:01;;;;;;;10.70;5.63;;;13.30;99.90;;;;;;5060848;28;20057;-60
2022/09/20 07:52:28;;;;;;;10.95;5.63;;;13.40;99.90;;;;;;5037043;28;20049;-60
2022/09/20 07:54:55;;;;;;;8.90;5.72;;;13.50;99.90;;;;;;5049159;28;20055;-60
2022/09/20 07:57:23;;;;;;;9.88;5.47;;;13.60;99.90;;;;;;5049038;28;20518;-60
2022/09/20 07:59:50;;;;;;;8.57;5.22;;;13.60;99.90;;;;;;5014866;28;20041;-60
2022/09/20 08:02:17;;;;;;;15.52;6.43;;;13.70;99.90;;;;;;5030847;28;20045;-59
2022/09/20 08:04:44;;;;;;;9.55;5.60;;;13.80;99.90;;;;;;5049155;28;20080;-61
2022/09/20 08:07:11;;;;;;;11.43;6.30;;;13.90;99.90;;;;;;5005561;28;20081;-61
2022/09/20 08:09:38;;;;;;;15.05;6.22;;;14.00;99.90;;;;;;5049213;28;20469;-60
2022/09/20 08:12:07;;;;;;;11.05;5.72;;;14.10;99.90;;;;;;5049659;28;20053;-60
2022/09/20 08:14:54;;;;;;;12.18;5.60;;;14.20;99.90;;;;;;5048162;28;20041;-61
2022/09/20 08:17:21;;;;;;;16.15;6.03;;;14.20;99.90;;;;;;5048492;28;20412;-60
2022/09/20 08:19:49;;;;;;;8.35;5.60;;;14.30;99.90;;;;;;5050417;28;20057;-61
2022/09/20 08:22:16;;;;;;;10.70;5.55;;;14.30;99.90;;;;;;5036080;28;20515;-60
2022/09/20 08:24:43;;;;;;;11.23;5.68;;;14.40;99.90;;;;;;5053160;28;20051;-60
2022/09/20 08:27:10;;;;;;;9.25;6.15;;;14.50;99.90;;;;;;5034181;28;20053;-60
2022/09/20 08:29:37;;;;;;;12.25;7.32;;;14.70;99.90;;;;;;5048455;28;20455;-60
2022/09/20 08:32:04;;;;;;;11.63;6.00;;;14.80;99.90;;;;;;5052585;28;20045;-60
2022/09/20 08:34:31;;;;;;;13.73;5.93;;;14.80;99.90;;;;;;5053655;28;20504;-60
2022/09/20 08:36:58;;;;;;;8.15;5.15;;;14.90;99.90;;;;;;5053934;28;20049;-60
2022/09/20 08:39:26;;;;;;;9.15;6.03;;;14.90;99.90;;;;;;5053689;28;20049;-60
2022/09/20 08:42:30;;;;;;;7.90;5.18;;;15.00;99.90;;;;;;5052759;28;20143;-60
2022/09/20 08:45:15;;;;;;;7.97;3.92;;;15.10;99.90;;;;;;5037961;28;20052;-60
2022/09/20 08:48:04;;;;;;;8.88;5.72;;;15.20;99.90;;;;;;5032746;28;20053;-60
2022/09/20 08:50:33;;;;;;;10.70;4.53;;;15.30;99.90;;;;;;5048725;28;20138;-61
2022/09/20 08:53:03;;;;;;;9.70;4.85;;;15.40;99.90;;;;;;5032308;28;20109;-61
2022/09/20 08:55:31;;;;;;;9.32;5.50;;;15.50;99.90;;;;;;5031250;28;20118;-60
2022/09/20 08:58:08;;;;;;;5.25;3.42;;;15.60;99.90;;;;;;5052585;28;20835;-59
2022/09/20 09:00:35;;;;;;;9.75;4.25;;;15.70;99.90;;;;;;5032933;28;20056;-61
2022/09/20 09:03:10;;;;;;;6.00;3.03;;;15.80;99.90;;;;;;5052637;28;20053;-61
2022/09/20 09:05:45;;;;;;;3.67;2.33;;;16.00;99.90;;;;;;5036079;28;20052;-60
2022/09/20 09:08:15;;;;;;;8.02;3.17;;;16.30;99.90;;;;;;5052274;28;20053;-59
2022/09/20 09:10:46;;;;;;;6.15;3.08;;;16.60;99.90;;;;;;5035869;28;20045;-60
2022/09/20 09:13:30;;;;;;;5.15;3.63;;;16.60;99.90;;;;;;5051690;28;20056;-60
2022/09/20 09:16:14;;;;;;;6.13;2.78;;;16.70;99.90;;;;;;5052269;28;20095;-59
2022/09/20 09:18:51;;;;;;;10.38;3.05;;;16.70;99.90;;;;;;5052369;28;20092;-60
2022/09/20 09:21:22;;;;;;;2.15;1.80;;;16.80;99.90;;;;;;5052527;28;20063;-60
2022/09/20 09:23:50;;;;;;;3.83;1.40;;;17.00;99.90;;;;;;5052284;28;20300;-60
2022/09/20 09:26:20;;;;;;;4.75;1.35;;;17.10;99.90;;;;;;5051079;28;20147;-61
2022/09/20 09:29:03;;;;;;;1.83;1.23;;;17.20;99.90;;;;;;5052851;28;20084;-60
2022/09/20 09:31:30;;;;;;;2.50;1.37;;;17.20;99.90;;;;;;5050679;28;20053;-61
2022/09/20 09:33:57;;;;;;;4.35;1.27;;;17.20;99.90;;;;;;5051396;28;20289;-60
2022/09/20 09:36:24;;;;;;;3.10;1.35;;;17.10;99.70;;;;;;5053105;28;20045;-61
2022/09/20 09:39:15;;;;;;;5.10;1.60;;;17.10;99.90;;;;;;5053978;28;20080;-60
2022/09/20 09:41:43;;;;;;;1.88;0.90;;;17.20;99.40;;;;;;5053348;28;20044;-61
2022/09/20 09:44:20;;;;;;;6.65;1.25;;;17.20;99.90;;;;;;5035408;28;20055;-61
2022/09/20 09:46:49;;;;;;;2.75;1.45;;;17.20;98.30;;;;;;5052074;28;20420;-60
2022/09/20 09:49:21;;;;;;;5.25;1.15;;;17.20;99.70;;;;;;5051995;28;20353;-61
2022/09/20 09:52:23;;;;;;;1.98;1.17;;;17.20;97.10;;;;;;5050363;28;20103;-59
2022/09/20 09:54:59;;;;;;;6.05;1.70;;;17.20;96.20;;;;;;5051952;28;20564;-60
2022/09/20 09:57:36;;;;;;;2.28;1.38;;;17.20;98.50;;;;;;5050629;28;20048;-59
2022/09/20 10:00:12;;;;;;;3.45;1.13;;;17.30;99.90;;;;;;5052096;28;20067;-59
2022/09/20 10:03:11;;;;;;;1.95;1.20;;;17.40;99.90;;;;;;5051551;28;20052;-59
2022/09/20 10:06:00;;;;;;;3.17;1.42;;;17.40;96.20;;;;;;5032202;28;20076;-60
2022/09/20 10:08:36;;;;;;;7.47;1.17;;;17.50;95.80;;;;;;5051015;28;20084;-59
2022/09/20 10:11:06;;;;;;;2.17;1.30;;;17.60;94.00;;;;;;5051917;28;20049;-60
2022/09/20 10:13:57;;;;;;;2.60;1.17;;;17.60;98.60;;;;;;5050327;28;20087;-59
2022/09/20 10:16:37;;;;;;;8.32;1.20;;;17.70;94.90;;;;;;5051684;28;20045;-60
2022/09/20 10:19:09;;;;;;;1.95;0.90;;;17.80;97.30;;;;;;5034682;28;20083;-59
2022/09/20 10:22:00;;;;;;;7.30;1.35;;;17.90;97.00;;;;;;5050473;28;20048;-60
2022/09/20 10:24:42;;;;;;;4.95;1.30;;;17.90;92.80;;;;;;5051233;28;20075;-60
2022/09/20 10:27:42;;;;;;;1.48;0.90;;;18.00;95.20;;;;;;5050193;28;20041;-60
2022/09/20 10:30:15;;;;;;;1.90;0.75;;;17.90;89.20;;;;;;5042404;28;20449;-61
2022/09/20 10:33:11;;;;;;;5.82;1.20;;;17.80;93.80;;;;;;5049994;28;20423;-60
2022/09/20 10:35:44;;;;;;;4.30;0.82;;;17.90;90.70;;;;;;5035260;28;20102;-60
2022/09/20 10:38:29;;;;;;;6.32;1.13;;;18.00;94.40;;;;;;5050850;28;20139;-61
2022/09/20 10:44:45;;;;;;;1.73;0.55;;;18.10;91.20;;;;;;5051535;28;20447;-60
2022/09/20 10:47:20;;;;;;;3.53;0.77;;;18.20;91.40;;;;;;5029828;28;20107;-59
2022/09/20 10:50:03;;;;;;;2.92;0.55;;;18.30;93.30;;;;;;5048636;28;20523;-60
2022/09/20 10:52:55;;;;;;;1.25;0.50;;;18.30;89.40;;;;;;5050201;28;20063;-60
2022/09/20 10:55:31;;;;;;;0.75;0.50;;;18.40;86.90;;;;;;5051380;28;20045;-60
2022/09/20 10:58:25;;;;;;;4.00;1.02;;;18.30;85.00;;;;;;5049913;28;20128;-59
2022/09/20 11:01:17;;;;;;;3.03;0.85;;;18.30;83.70;;;;;;5049189;28;20045;-60
2022/09/20 11:03:59;;;;;;;1.30;1.20;;;18.20;82.80;;;;;;5033396;28;20490;-61
2022/09/20 11:06:49;;;;;;;2.20;1.10;;;18.20;86.50;;;;;;5018265;28;20062;-60
2022/09/20 11:09:23;;;;;;;2.10;0.98;;;18.20;87.00;;;;;;5035669;28;20045;-60
2022/09/20 11:12:41;;;;;;;0.80;0.63;;;18.30;88.40;;;;;;5049664;28;20045;-59
2022/09/20 11:15:20;;;;;;;2.72;0.60;;;18.40;83.70;;;;;;5032051;28;20049;-59
2022/09/20 11:17:58;;;;;;;3.28;0.88;;;18.50;86.40;;;;;;5031493;28;20073;-60
2022/09/20 11:20:43;;;;;;;1.13;0.90;;;18.70;88.30;;;;;;5043274;28;20390;-59
2022/09/20 11:23:27;;;;;;;1.00;0.55;;;18.90;84.60;;;;;;5013674;28;20118;-60
2022/09/20 11:26:00;;;;;;;2.10;0.50;;;19.00;83.00;;;;;;5047379;28;20045;-61
2022/09/20 11:28:35;;;;;;;1.95;0.90;;;19.00;84.90;;;;;;5017661;28;20588;-61
2022/09/20 11:31:22;;;;;;;0.98;0.90;;;18.80;80.80;;;;;;5033414;28;20060;-61
2022/09/20 11:34:07;;;;;;;2.58;1.17;;;18.90;80.40;;;;;;5033795;28;20068;-61
2022/09/20 11:36:57;;;;;;;1.48;0.77;;;18.90;80.30;;;;;;5034190;28;20053;-61
2022/09/20 11:39:28;;;;;;;3.55;1.38;;;18.90;83.20;;;;;;5049261;28;20419;-59
2022/09/20 11:41:55;;;;;;;1.67;0.75;;;18.90;81.10;;;;;;5032991;28;20085;-59
2022/09/20 11:44:22;;;;;;;1.83;0.63;;;18.90;83.10;;;;;;5049243;28;20480;-60
2022/09/20 11:47:02;;;;;;;1.67;0.70;;;18.90;84.30;;;;;;5049113;28;20049;-58
2022/09/20 11:50:07;;;;;;;3.10;0.70;;;19.10;81.50;;;;;;5048898;28;20539;-61
2022/09/20 11:52:52;;;;;;;0.90;0.80;;;19.00;78.90;;;;;;5050600;28;20048;-59
2022/09/20 11:55:27;;;;;;;5.20;0.90;;;19.10;79.60;;;;;;5049189;28;20103;-60
2022/09/20 11:58:09;;;;;;;1.00;0.60;;;19.20;81.50;;;;;;5039570;28;20390;-60
2022/09/20 12:00:40;;;;;;;1.50;0.80;;;19.20;76.60;;;;;;5032029;28;20044;-60
2022/09/20 12:03:22;;;;;;;3.03;0.98;;;19.20;81.50;;;;;;5049616;28;20049;-60
2022/09/20 12:05:56;;;;;;;1.05;0.82;;;19.20;79.30;;;;;;5032749;28;20069;-60
2022/09/20 12:08:36;;;;;;;4.25;2.40;;;19.20;80.80;;;;;;5032393;28;20095;-61
2022/09/20 12:11:12;;;;;;;1.50;1.00;;;19.40;80.40;;;;;;5047937;28;20129;-60
2022/09/20 12:13:41;;;;;;;1.75;0.80;;;19.60;79.80;;;;;;5048476;28;20049;-60
2022/09/20 12:16:17;;;;;;;2.38;0.90;;;19.60;81.20;;;;;;5032089;28;20053;-60
2022/09/20 12:18:52;;;;;;;1.98;0.60;;;19.60;77.60;;;;;;5031479;28;20060;-59
2022/09/20 12:21:20;;;;;;;2.90;0.88;;;19.70;79.70;;;;;;5048229;28;20120;-59
2022/09/20 12:23:54;;;;;;;3.80;1.00;;;19.80;80.10;;;;;;5048480;28;20056;-60
2022/09/20 12:26:21;;;;;;;2.80;1.02;;;19.80;78.50;;;;;;5049400;28;20137;-61
2022/09/20 12:28:57;;;;;;;3.08;0.95;;;19.80;80.00;;;;;;5049500;28;20049;-60
2022/09/20 12:31:25;;;;;;;3.45;1.20;;;19.70;77.90;;;;;;5032301;28;20048;-59
2022/09/20 12:34:26;;;;;;;1.73;0.95;;;19.80;81.20;;;;;;5047995;28;20124;-60
2022/09/20 12:36:52;;;;;;;1.38;0.70;;;19.80;75.50;;;;;;5047479;28;20041;-60
2022/09/20 12:39:29;;;;;;;1.70;0.80;;;19.80;77.70;;;;;;5049903;28;20547;-60
2022/09/20 12:42:11;;;;;;;1.85;0.85;;;19.80;78.40;;;;;;5048045;28;20100;-60
2022/09/20 12:44:41;;;;;;;2.28;1.20;;;19.80;75.50;;;;;;5039088;28;20144;-60
2022/09/20 12:47:11;;;;;;;2.42;0.77;;;19.70;76.90;;;;;;5049646;28;20056;-60
2022/09/20 12:55:45;;;;;;;8.43;0.90;;;19.70;77.60;;;;;;5049842;28;20057;-61
2022/09/20 12:58:13;;;;;;;8.75;0.98;;;19.90;74.50;;;;;;5028256;28;20095;-60
2022/09/20 13:00:46;;;;;;;3.45;0.95;;;19.90;78.30;;;;;;5044713;28;20127;-60
2022/09/20 13:03:22;;;;;;;0.93;0.65;;;20.00;76.20;;;;;;5049477;28;20388;-61
2022/09/20 13:06:14;;;;;;;3.47;0.93;;;20.00;74.30;;;;;;5051185;28;20059;-60
2022/09/20 13:08:59;;;;;;;2.75;0.98;;;20.10;72.90;;;;;;5051481;28;20044;-60
2022/09/20 13:11:51;;;;;;;2.45;1.00;;;20.20;76.10;;;;;;5051992;28;20048;-60
2022/09/20 13:14:25;;;;;;;3.17;1.20;;;20.50;71.50;;;;;;5034867;28;20051;-60
2022/09/20 13:17:08;;;;;;;5.22;1.10;;;20.50;76.70;;;;;;5032074;28;20133;-60
2022/09/20 13:19:37;;;;;;;3.13;1.08;;;20.60;71.80;;;;;;5032267;28;20087;-61
2022/09/20 13:22:19;;;;;;;1.45;0.80;;;20.50;74.50;;;;;;5036023;28;20084;-60
2022/09/20 13:24:47;;;;;;;1.85;0.68;;;20.30;72.70;;;;;;5036617;28;20060;-60
2022/09/20 13:27:29;;;;;;;3.72;1.30;;;20.20;73.80;;;;;;5036969;28;20045;-60
2022/09/20 13:30:19;;;;;;;4.22;1.30;;;20.20;76.00;;;;;;5053811;28;20049;-59
2022/09/20 13:32:46;;;;;;;1.63;0.90;;;20.30;73.10;;;;;;5058312;28;20044;-61
2022/09/20 13:35:13;;;;;;;1.88;1.20;;;20.40;76.20;;;;;;5040855;28;20087;-59
2022/09/20 13:37:51;;;;;;;2.67;1.42;;;20.50;76.70;;;;;;5059771;28;20519;-62
2022/09/20 13:40:41;;;;;;;3.95;1.17;;;20.70;71.40;;;;;;5043157;28;20059;-60
2022/09/20 13:43:39;;;;;;;5.35;1.20;;;20.70;74.00;;;;;;5052014;28;20083;-60
2022/09/20 13:46:15;;;;;;;4.28;1.30;;;20.70;71.70;;;;;;5048617;28;20055;-60
2022/09/20 13:48:44;;;;;;;10.65;2.63;;;20.70;74.00;;;;;;5052996;28;20057;-60
2022/09/20 13:51:25;;;;;;;6.50;1.65;;;20.80;75.30;;;;;;5050115;28;20455;-59
2022/09/20 13:53:52;;;;;;;2.95;1.58;;;21.00;74.10;;;;;;5056067;28;20053;-59
2022/09/20 13:56:27;;;;;;;1.77;1.40;;;21.10;74.50;;;;;;5055717;28;20079;-60
2022/09/20 13:58:57;;;;;;;3.35;1.48;;;21.20;74.20;;;;;;5039674;28;20219;-60
2022/09/20 14:01:28;;;;;;;8.82;2.17;;;21.20;74.80;;;;;;5055549;28;20059;-60
2022/09/20 14:04:00;;;;;;;4.70;1.73;;;21.20;73.90;;;;;;5057008;28;20045;-60